Weather reports worldwide

Advertisment
Panocchia, Italy (16131): temperature: 13.03.2019 10:00:00 - 19.03.2019 10:00:00 (CET)Panocchia, Italy (16131): wind speed: 13.03.2019 10:00:00 - 19.03.2019 10:00:00 (CET)Panocchia, Italy (16131): wind direction: 13.03.2019 10:00:00 - 19.03.2019 10:00:00 (CET)Panocchia, Italy (16131): reduced air pressure: 13.03.2019 10:00:00 - 19.03.2019 10:00:00 (CET)Panocchia, Italy (16131): precipitation: 13.03.2019 10:00:00 - 19.03.2019 10:00:00 (CET)
Date & Time tt [°C] ff [km/h] ff [kn] dd ppp [hPa] rr [mm]
19.03.2019 10:00:00 - - - - - -
19.03.2019 09:00:00 7,5 1 1 NE 1023,2 0,0
19.03.2019 08:00:00 3,9 4 2 NW 1023,0 0,0
19.03.2019 07:00:00 1,7 6 4 WNW 1022,4 0,0
19.03.2019 06:00:00 0,0 5 3 NW 1022,0 0,0
19.03.2019 05:00:00 1,0 4 2 W 1021,6 0,0
19.03.2019 04:00:00 1,5 3 2 NW 1021,4 0,0
19.03.2019 03:00:00 3,6 2 1 WNW 1021,1 0,0
19.03.2019 02:00:00 4,2 5 3 NNE 1021,3 0,0
19.03.2019 01:00:00 5,2 5 3 SSE 1021,2 0,0
19.03.2019 00:00:00 5,2 5 3 E 1021,1 0,0
18.03.2019 23:00:00 6,1 7 4 SSE 1020,6 0,0
18.03.2019 22:00:00 5,6 12 7 ESE 1020,0 0,0
18.03.2019 21:00:00 6,1 12 6 ESE 1019,4 0,0
18.03.2019 20:00:00 6,8 9 5 SSE 1018,7 0,0
18.03.2019 19:00:00 7,5 21 11 ESE 1018,0 0,0
18.03.2019 18:00:00 9,1 25 13 E 1016,6 0,0
18.03.2019 17:00:00 11,1 19 10 E 1015,3 0,0
18.03.2019 16:00:00 11,6 21 11 E 1014,9 0,0
18.03.2019 15:00:00 11,8 21 11 E 1014,6 0,0
18.03.2019 14:00:00 12,7 9 5 ENE 1014,6 0,0
18.03.2019 13:00:00 12,5 7 4 NE 1015,0 0,0
18.03.2019 12:00:00 12,1 5 3 NE 1014,8 0,0
18.03.2019 11:00:00 10,9 8 4 NNE 1014,6 0,0
18.03.2019 10:00:00 9,1 14 8 NNW 1014,2 0,0
18.03.2019 09:00:00 9,0 18 10 NNW 1013,2 0,0
18.03.2019 08:00:00 9,3 11 6 NNW 1011,9 0,0
18.03.2019 07:00:00 9,3 10 5 W 1010,6 0,6
18.03.2019 06:00:00 7,7 18 10 W 1011,3 3,2
18.03.2019 05:00:00 8,7 27 15 NW 1010,0 0,4
18.03.2019 04:00:00 8,1 8 5 WNW 1008,6 0,0
18.03.2019 03:00:00 10,8 - - - 1008,7 0,0
18.03.2019 02:00:00 11,3 - - - 1009,5 0,0
18.03.2019 01:00:00 12,4 5 3 WNW 1009,7 0,0
18.03.2019 00:00:00 9,4 3 2 NW 1010,2 0,0
17.03.2019 23:00:00 8,3 9 5 WNW 1010,8 0,0
17.03.2019 22:00:00 10,4 4 2 W 1011,3 0,0
17.03.2019 21:00:00 10,2 8 4 W 1011,3 0,0
17.03.2019 20:00:00 12,2 4 2 WNW 1011,2 0,0
17.03.2019 19:00:00 12,6 4 2 W 1011,4 0,0
17.03.2019 18:00:00 14,5 10 5 ESE 1011,3 0,0
17.03.2019 17:00:00 16,4 17 9 E 1011,2 0,0
17.03.2019 16:00:00 17,1 10 5 N 1011,5 0,0
17.03.2019 15:00:00 16,7 12 6 N 1012,3 0,0
17.03.2019 14:00:00 17,5 8 5 N 1012,8 0,0
17.03.2019 13:00:00 16,7 7 4 ENE 1013,7 0,0
17.03.2019 12:00:00 16,9 6 3 NNE 1014,6 0,0
17.03.2019 11:00:00 15,6 7 4 E 1015,4 0,0
17.03.2019 10:00:00 14,6 7 4 E 1015,9 0,0
17.03.2019 09:00:00 13,2 4 2 S 1016,1 0,0
17.03.2019 08:00:00 9,1 8 4 W 1016,4 0,0
17.03.2019 07:00:00 5,6 9 5 WNW 1016,4 0,0
17.03.2019 06:00:00 5,7 12 7 WNW 1016,1 0,0
17.03.2019 05:00:00 6,3 11 6 WNW 1016,1 0,0
17.03.2019 04:00:00 6,2 13 7 NW 1015,9 0,0
17.03.2019 03:00:00 7,0 11 6 WNW 1015,7 0,0
17.03.2019 02:00:00 7,8 14 7 WNW 1016,0 0,0
17.03.2019 01:00:00 5,2 7 4 W 1016,2 0,0
17.03.2019 00:00:00 6,2 3 2 SSW 1016,2 0,0
16.03.2019 23:00:00 7,5 4 2 S 1016,0 0,0
16.03.2019 22:00:00 11,7 4 2 SSE 1015,3 0,0
16.03.2019 21:00:00 10,0 10 6 S 1014,6 0,0
16.03.2019 20:00:00 13,9 9 5 W 1013,6 0,0
16.03.2019 19:00:00 14,1 9 5 WNW 1013,2 0,0
16.03.2019 18:00:00 18,8 6 3 E 1012,6 0,0
16.03.2019 17:00:00 20,6 8 4 ESE 1012,3 0,0
16.03.2019 16:00:00 21,2 5 3 E 1012,4 0,0
16.03.2019 15:00:00 20,7 8 4 E 1012,4 0,0
16.03.2019 14:00:00 20,0 11 6 ENE 1012,9 0,0
16.03.2019 13:00:00 19,1 8 5 E 1013,6 0,0
16.03.2019 12:00:00 19,1 6 3 NNE 1014,1 0,0
16.03.2019 11:00:00 17,1 5 3 N 1014,4 0,0
16.03.2019 10:00:00 15,7 - - - 1014,5 -
16.03.2019 09:00:00 13,4 4 2 NW 1014,3 0,0
16.03.2019 08:00:00 10,2 - - - - 0,0
16.03.2019 07:00:00 6,4 5 3 SSW 1013,4 0,0
16.03.2019 06:00:00 4,8 3 2 SE 1013,3 0,0
16.03.2019 05:00:00 6,2 - - - 1012,9 0,0
16.03.2019 04:00:00 10,6 6 3 WNW 1012,4 0,0
16.03.2019 03:00:00 6,5 7 4 S 1012,8 0,0
16.03.2019 02:00:00 9,5 5 3 SSW 1012,9 0,0
16.03.2019 01:00:00 7,2 - - - 1012,8 0,0
16.03.2019 00:00:00 7,6 2 1 WSW 1012,9 0,0
15.03.2019 23:00:00 10,2 1 1 NW 1012,7 0,0
15.03.2019 22:00:00 9,0 5 3 W 1012,6 0,0
15.03.2019 21:00:00 12,7 5 3 NE 1011,8 0,0
15.03.2019 20:00:00 18,1 6 3 NE 1010,3 0,0
15.03.2019 19:00:00 19,4 16 9 W 1009,5 0,0
15.03.2019 18:00:00 19,8 24 13 W 1009,2 0,0
15.03.2019 17:00:00 21,0 24 13 W 1009,0 0,0
15.03.2019 16:00:00 22,1 23 12 W 1008,6 0,0
15.03.2019 15:00:00 22,8 23 12 W 1008,5 0,0
15.03.2019 14:00:00 22,9 25 13 W 1008,6 0,0
15.03.2019 13:00:00 21,7 9 5 WNW 1009,2 0,0
15.03.2019 12:00:00 19,3 8 5 NNW 1010,2 0,0
15.03.2019 11:00:00 15,8 6 3 N 1011,2 0,0
15.03.2019 10:00:00 18,6 10 5 NW 1010,6 0,0
15.03.2019 09:00:00 17,2 11 6 W 1010,0 0,0
15.03.2019 08:00:00 14,9 9 5 W 1009,8 0,0
15.03.2019 07:00:00 11,9 7 4 W 1009,9 0,0
15.03.2019 06:00:00 4,0 9 5 WNW 1010,1 0,0
15.03.2019 05:00:00 1,8 10 5 WSW 1009,8 0,0
15.03.2019 04:00:00 8,3 8 5 WNW 1009,1 0,0
15.03.2019 03:00:00 9,1 7 4 WNW 1008,6 0,0
15.03.2019 02:00:00 9,4 12 7 W 1008,6 0,0
15.03.2019 01:00:00 8,3 4 2 WNW 1008,6 0,0
15.03.2019 00:00:00 6,2 2 1 NE 1008,5 0,0
14.03.2019 23:00:00 7,1 5 3 WNW 1009,0 0,0
14.03.2019 22:00:00 7,1 6 4 W 1009,2 0,0
14.03.2019 21:00:00 11,0 3 2 NE 1008,8 0,0
14.03.2019 20:00:00 12,0 5 3 W 1009,3 0,0
14.03.2019 19:00:00 13,5 13 7 W 1009,1 0,0
14.03.2019 18:00:00 14,7 16 9 W 1008,9 0,0
14.03.2019 17:00:00 15,4 8 4 W 1009,2 0,0
14.03.2019 16:00:00 15,5 20 11 W 1009,9 0,0
14.03.2019 15:00:00 16,1 5 3 NW 1010,6 0,0
14.03.2019 14:00:00 15,9 16 8 N 1011,6 0,0
14.03.2019 13:00:00 15,1 17 9 N 1013,0 0,0
14.03.2019 12:00:00 14,5 13 7 N 1013,9 0,0
14.03.2019 11:00:00 13,1 7 4 N 1014,4 0,0
14.03.2019 10:00:00 11,0 6 3 ENE 1015,2 0,0
14.03.2019 09:00:00 9,4 6 3 ESE 1015,2 0,0
14.03.2019 08:00:00 5,2 5 3 W 1015,6 0,0
14.03.2019 07:00:00 2,0 11 6 W 1016,0 0,0
14.03.2019 06:00:00 1,8 - - - 1016,0 0,0
14.03.2019 05:00:00 1,8 9 5 W 1015,9 0,0
14.03.2019 04:00:00 1,8 12 6 WNW 1015,9 0,0
14.03.2019 03:00:00 2,3 10 6 WNW 1015,6 0,0
14.03.2019 02:00:00 2,6 17 9 WNW 1015,3 0,0
14.03.2019 01:00:00 2,4 - - - 1015,2 0,0
14.03.2019 00:00:00 2,5 - - - 1015,2 0,0
13.03.2019 23:00:00 3,6 10 5 WNW 1015,0 0,0
13.03.2019 22:00:00 3,2 9 5 WSW 1014,4 0,0
13.03.2019 21:00:00 3,6 14 7 WNW 1013,7 0,0
13.03.2019 20:00:00 2,4 6 3 SSW 1013,9 0,0
13.03.2019 19:00:00 4,5 2 1 SSW 1013,0 0,0
13.03.2019 18:00:00 8,2 5 3 N 1011,9 0,0
13.03.2019 17:00:00 7,2 8 4 S 1011,5 0,0
13.03.2019 16:00:00 6,2 10 6 S 1012,0 0,6
13.03.2019 15:00:00 - - - - - -
13.03.2019 14:00:00 - - - - - -
13.03.2019 13:00:00 - - - - - -
13.03.2019 12:00:00 6,8 5 3 SE 1014,0 0,2
13.03.2019 11:00:00 7,4 4 2 N 1014,1 0,2
13.03.2019 10:00:00 8,7 2 1 WNW 1014,2 0,0

tt = temperature
ff = wind speed
dd = wind direction
ppp = reduced air pressure
rr = precipitation

Next stations